Time;durP1;ratioP1;P1;durP2;ratioP2;P2;SDS_P1;SDS_P2;PMS_P1;PMS_P2;Temp;Humidity;BMP_temperature;BMP_pressure;BME280_temperature;BME280_humidity;BME280_pressure;Samples;Min_cycle;Max_cycle;Signal;HPM_P1;HPM_P2
2023/03/28 00:01:41;;;;;;;10.43;9.82;;;;;;;;;;5009907;28;20026;-51
2023/03/28 00:04:10;;;;;;;9.65;9.05;;;;;;;;;;4995414;28;20089;-48
2023/03/28 00:06:37;;;;;;;10.20;9.50;;;;;;;;;;4993708;28;20057;-49
2023/03/28 00:09:05;;;;;;;10.63;9.93;;;;;;;;;;4994639;28;20042;-48
2023/03/28 00:11:31;;;;;;;9.45;8.85;;;;;;;;;;4994617;28;20038;-47
2023/03/28 00:14:02;;;;;;;10.95;10.25;;;;;;;;;;4995712;28;20463;-52
2023/03/28 00:16:33;;;;;;;10.68;10.00;;;;;;;;;;4995031;28;20030;-47
2023/03/28 00:19:04;;;;;;;10.93;10.10;;;;;;;;;;4991518;28;20038;-47
2023/03/28 00:21:32;;;;;;;9.68;9.07;;;;;;;;;;4993261;28;20095;-54
2023/03/28 00:24:02;;;;;;;10.52;9.93;;;;;;;;;;4995286;28;20042;-52
2023/03/28 00:26:31;;;;;;;9.97;9.37;;;;;;;;;;4995384;28;20045;-51
2023/03/28 00:28:57;;;;;;;9.55;8.95;;;;;;;;;;4994036;28;20054;-51
2023/03/28 00:31:24;;;;;;;9.95;9.35;;;;;;;;;;4997907;28;20026;-47
2023/03/28 00:33:50;;;;;;;10.10;9.50;;;;;;;;;;4995508;28;20129;-51
2023/03/28 00:36:21;;;;;;;9.60;9.00;;;;;;;;;;5000316;28;20133;-49
2023/03/28 00:38:51;;;;;;;9.75;9.15;;;;;;;;;;4994603;28;20034;-49
2023/03/28 00:41:17;;;;;;;9.75;9.15;;;;;;;;;;4997988;28;20049;-49
2023/03/28 00:43:47;;;;;;;9.65;9.05;;;;;;;;;;4994754;28;20112;-54
2023/03/28 00:46:21;;;;;;;10.63;9.85;;;;;;;;;;4993825;28;20463;-46
2023/03/28 00:48:57;;;;;;;11.23;9.40;;;;;;;;;;4994136;28;20526;-48
2023/03/28 00:51:26;;;;;;;10.15;9.43;;;;;;;;;;4995298;28;20034;-50
2023/03/28 00:53:53;;;;;;;9.70;9.00;;;;;;;;;;4995763;28;20098;-47
2023/03/28 00:56:23;;;;;;;9.45;8.85;;;;;;;;;;4995999;28;20128;-48
2023/03/28 00:58:50;;;;;;;9.40;8.80;;;;;;;;;;4992945;28;20468;-47
2023/03/28 01:01:18;;;;;;;9.10;8.50;;;;;;;;;;4994166;28;20034;-48
2023/03/28 01:03:48;;;;;;;8.63;8.10;;;;;;;;;;4998297;28;20030;-49
2023/03/28 01:06:15;;;;;;;9.63;9.02;;;;;;;;;;4994722;28;20060;-50
2023/03/28 01:08:43;;;;;;;10.02;9.32;;;;;;;;;;4992560;28;20125;-48
2023/03/28 01:11:10;;;;;;;9.63;9.02;;;;;;;;;;4994576;28;20092;-50
2023/03/28 01:13:38;;;;;;;9.13;8.52;;;;;;;;;;4996541;28;20410;-46
2023/03/28 01:16:05;;;;;;;9.00;8.40;;;;;;;;;;4992343;28;20049;-49
2023/03/28 01:18:33;;;;;;;9.50;8.90;;;;;;;;;;4993920;28;20038;-52
2023/03/28 01:21:05;;;;;;;9.60;9.00;;;;;;;;;;4992039;28;20042;-50
2023/03/28 01:23:42;;;;;;;;;;;;;;;;;;4996714;28;20038;-48
2023/03/28 01:26:45;;;;;;;8.50;8.00;;;;;;;;;;5005722;28;19979;-49
2023/03/28 01:29:48;;;;;;;8.50;7.95;;;;;;;;;;4991988;28;20038;-49
2023/03/28 01:32:44;;;;;;;9.07;8.48;;;;;;;;;;4996293;28;20088;-50
2023/03/28 01:35:27;;;;;;;9.82;9.23;;;;;;;;;;4996391;28;20030;-49
2023/03/28 01:38:14;;;;;;;8.45;7.95;;;;;;;;;;4995684;28;20117;-49
2023/03/28 01:40:54;;;;;;;8.95;8.35;;;;;;;;;;4994194;28;20082;-50
2023/03/28 01:44:14;;;;;;;9.50;8.80;;;;;;;;;;4993932;28;20034;-49
2023/03/28 01:46:50;;;;;;;8.50;7.90;;;;;;;;;;4919096;29;20039;-48
2023/03/28 01:49:25;;;;;;;9.10;8.40;;;;;;;;;;4982659;28;20197;-51
2023/03/28 01:52:07;;;;;;;8.82;8.23;;;;;;;;;;4995049;28;20030;-50
2023/03/28 01:54:48;;;;;;;8.98;8.38;;;;;;;;;;5010016;28;20081;-47
2023/03/28 01:57:23;;;;;;;9.73;9.13;;;;;;;;;;4992510;28;20037;-50
2023/03/28 01:59:55;;;;;;;9.43;8.77;;;;;;;;;;5008841;28;20060;-52
2023/03/28 02:02:23;;;;;;;9.57;8.88;;;;;;;;;;4995077;28;20069;-49
2023/03/28 02:04:52;;;;;;;8.30;7.80;;;;;;;;;;4996155;28;20118;-49
2023/03/28 02:07:20;;;;;;;9.10;8.50;;;;;;;;;;4994900;28;20455;-50
2023/03/28 02:09:48;;;;;;;8.30;7.80;;;;;;;;;;4991711;28;20060;-48
2023/03/28 02:12:39;;;;;;;9.45;8.85;;;;;;;;;;4993233;28;20049;-50
2023/03/28 02:15:09;;;;;;;8.82;8.23;;;;;;;;;;4985345;28;20054;-51
2023/03/28 02:17:41;;;;;;;8.93;8.32;;;;;;;;;;4994349;28;20041;-52
2023/03/28 02:20:11;;;;;;;8.45;7.95;;;;;;;;;;4993630;28;20038;-50
2023/03/28 02:22:55;;;;;;;8.80;8.20;;;;;;;;;;4992345;28;20502;-53
2023/03/28 02:25:21;;;;;;;8.75;8.20;;;;;;;;;;4996765;28;20483;-52
2023/03/28 02:27:51;;;;;;;8.95;8.35;;;;;;;;;;4991038;28;20072;-49
2023/03/28 02:30:17;;;;;;;9.47;8.80;;;;;;;;;;4994938;28;20081;-50
2023/03/28 02:32:48;;;;;;;8.73;8.20;;;;;;;;;;4991755;28;20034;-49
2023/03/28 02:35:15;;;;;;;9.13;8.52;;;;;;;;;;4993424;28;20104;-51
2023/03/28 02:38:09;;;;;;;8.93;8.32;;;;;;;;;;4996245;28;20026;-47
2023/03/28 02:41:05;;;;;;;9.18;8.57;;;;;;;;;;5012592;28;20046;-51
2023/03/28 02:43:51;;;;;;;8.93;8.32;;;;;;;;;;4998172;28;20045;-48
2023/03/28 02:46:39;;;;;;;9.57;8.98;;;;;;;;;;4996720;28;20058;-51
2023/03/28 02:49:25;;;;;;;9.45;8.85;;;;;;;;;;4997421;28;20336;-52
2023/03/28 02:52:13;;;;;;;9.80;9.05;;;;;;;;;;4982869;28;20045;-53
2023/03/28 02:54:50;;;;;;;8.82;8.23;;;;;;;;;;4995957;28;20034;-46
2023/03/28 02:57:26;;;;;;;9.68;9.05;;;;;;;;;;4996348;28;20057;-46
2023/03/28 02:59:58;;;;;;;8.77;8.20;;;;;;;;;;4992718;28;20056;-51
2023/03/28 03:02:24;;;;;;;8.82;8.23;;;;;;;;;;5010648;28;20299;-50
2023/03/28 03:04:50;;;;;;;8.75;8.18;;;;;;;;;;4997658;28;20041;-52
2023/03/28 03:07:17;;;;;;;8.43;7.93;;;;;;;;;;4996799;28;20767;-51
2023/03/28 03:09:44;;;;;;;9.70;8.95;;;;;;;;;;5009601;28;20181;-51
2023/03/28 03:12:10;;;;;;;8.30;7.80;;;;;;;;;;4995337;28;20415;-51
2023/03/28 03:14:37;;;;;;;9.25;8.65;;;;;;;;;;4993555;28;20038;-48
2023/03/28 03:17:04;;;;;;;8.05;7.55;;;;;;;;;;4993972;28;20092;-49
2023/03/28 03:19:30;;;;;;;8.00;7.50;;;;;;;;;;4994978;28;20144;-52
2023/03/28 03:21:56;;;;;;;8.82;8.23;;;;;;;;;;4996768;28;20108;-49
2023/03/28 03:24:22;;;;;;;10.25;9.45;;;;;;;;;;4995385;28;20039;-49
2023/03/28 03:26:47;;;;;;;9.35;8.75;;;;;;;;;;4995053;28;20117;-52
2023/03/28 03:29:12;;;;;;;8.48;7.97;;;;;;;;;;4995460;28;20064;-48
2023/03/28 03:31:38;;;;;;;8.45;7.95;;;;;;;;;;5010532;28;20038;-51
2023/03/28 03:34:03;;;;;;;8.65;8.05;;;;;;;;;;4994954;28;20495;-49
2023/03/28 03:36:30;;;;;;;8.85;8.25;;;;;;;;;;4996780;28;20034;-49
2023/03/28 03:38:56;;;;;;;9.23;8.63;;;;;;;;;;4994699;28;20042;-50
2023/03/28 03:41:21;;;;;;;8.32;7.82;;;;;;;;;;4996128;28;20049;-51
2023/03/28 03:43:46;;;;;;;8.60;8.00;;;;;;;;;;4996726;28;20039;-49
2023/03/28 03:46:12;;;;;;;8.75;8.20;;;;;;;;;;5008992;28;20084;-50
2023/03/28 03:48:37;;;;;;;8.13;7.63;;;;;;;;;;4996062;28;20112;-50
2023/03/28 03:51:03;;;;;;;8.48;7.97;;;;;;;;;;4994934;28;20123;-53
2023/03/28 03:53:28;;;;;;;8.25;7.75;;;;;;;;;;4993770;28;20026;-51
2023/03/28 03:55:53;;;;;;;9.00;8.40;;;;;;;;;;4993989;28;20053;-50
2023/03/28 03:58:19;;;;;;;8.52;8.00;;;;;;;;;;4995028;28;20491;-47
2023/03/28 04:00:45;;;;;;;8.80;8.20;;;;;;;;;;4998274;28;20034;-52
2023/03/28 04:03:11;;;;;;;8.15;7.63;;;;;;;;;;4997276;28;20038;-51
2023/03/28 04:05:36;;;;;;;8.38;7.88;;;;;;;;;;4992240;28;20683;-51
2023/03/28 04:08:02;;;;;;;8.40;7.90;;;;;;;;;;5003034;28;20042;-53
2023/03/28 04:10:27;;;;;;;8.43;7.90;;;;;;;;;;4984027;28;20030;-53
2023/03/28 04:12:52;;;;;;;8.77;8.18;;;;;;;;;;4994517;28;20036;-51
2023/03/28 04:15:18;;;;;;;9.23;8.57;;;;;;;;;;4994014;28;20546;-49
2023/03/28 04:17:43;;;;;;;9.73;9.05;;;;;;;;;;4995450;28;20053;-49
2023/03/28 04:20:12;;;;;;;11.48;10.30;;;;;;;;;;4993879;28;20038;-49
2023/03/28 04:22:38;;;;;;;10.05;9.35;;;;;;;;;;5002465;28;20055;-49
2023/03/28 04:25:03;;;;;;;8.55;8.05;;;;;;;;;;4994929;28;20099;-51
2023/03/28 04:27:30;;;;;;;9.02;8.43;;;;;;;;;;4993322;28;20115;-52
2023/03/28 04:29:55;;;;;;;9.13;8.52;;;;;;;;;;4994525;28;20364;-50
2023/03/28 04:32:21;;;;;;;10.70;9.88;;;;;;;;;;4996443;28;20029;-47
2023/03/28 04:34:49;;;;;;;8.98;8.38;;;;;;;;;;4993273;28;20037;-50
2023/03/28 04:37:16;;;;;;;8.70;8.10;;;;;;;;;;4994163;28;20038;-47
2023/03/28 04:39:45;;;;;;;9.57;8.88;;;;;;;;;;4993666;28;20061;-48
2023/03/28 04:42:12;;;;;;;8.93;8.32;;;;;;;;;;4995814;28;20050;-49
2023/03/28 04:44:37;;;;;;;8.23;7.72;;;;;;;;;;5000896;28;20420;-49
2023/03/28 04:47:03;;;;;;;8.10;7.60;;;;;;;;;;4997491;28;20436;-51
2023/03/28 04:49:28;;;;;;;8.63;8.02;;;;;;;;;;4994675;28;20074;-51
2023/03/28 04:51:54;;;;;;;8.48;7.90;;;;;;;;;;4998509;28;20078;-49
2023/03/28 04:54:19;;;;;;;8.50;7.95;;;;;;;;;;4995349;28;20120;-49
2023/03/28 04:56:49;;;;;;;8.75;8.18;;;;;;;;;;4997416;28;20042;-50
2023/03/28 04:59:16;;;;;;;9.25;8.65;;;;;;;;;;4993810;28;20042;-48
2023/03/28 05:01:48;;;;;;;8.38;7.88;;;;;;;;;;4998216;28;20038;-48
2023/03/28 05:04:16;;;;;;;8.65;8.13;;;;;;;;;;4997711;28;20477;-51
2023/03/28 05:06:44;;;;;;;9.07;8.48;;;;;;;;;;4993079;28;20034;-50
2023/03/28 05:09:11;;;;;;;9.10;8.50;;;;;;;;;;5001634;28;20034;-49
2023/03/28 05:11:37;;;;;;;9.52;8.45;;;;;;;;;;4993799;28;20651;-50
2023/03/28 05:14:02;;;;;;;9.52;8.77;;;;;;;;;;4982773;28;20045;-51
2023/03/28 05:16:27;;;;;;;8.93;8.32;;;;;;;;;;4994593;28;20034;-53
2023/03/28 05:18:55;;;;;;;9.65;8.88;;;;;;;;;;4991094;28;20049;-51
2023/03/28 05:21:20;;;;;;;8.98;8.38;;;;;;;;;;4991895;28;20042;-51
2023/03/28 05:23:46;;;;;;;8.55;7.95;;;;;;;;;;5002417;28;20038;-51
2023/03/28 05:26:11;;;;;;;8.50;7.90;;;;;;;;;;5001759;28;20049;-49
2023/03/28 05:28:37;;;;;;;9.90;9.30;;;;;;;;;;4995326;28;20549;-52
2023/03/28 05:31:02;;;;;;;8.40;7.90;;;;;;;;;;4993070;28;20046;-53
2023/03/28 05:33:28;;;;;;;9.85;9.15;;;;;;;;;;4992661;28;21716;-49
2023/03/28 05:35:54;;;;;;;9.50;8.90;;;;;;;;;;4990157;28;20380;-50
2023/03/28 05:38:20;;;;;;;9.05;8.35;;;;;;;;;;4990176;28;20038;-52
2023/03/28 05:40:46;;;;;;;8.90;8.30;;;;;;;;;;4992421;28;20476;-51
2023/03/28 05:43:11;;;;;;;9.52;8.93;;;;;;;;;;4993870;28;20092;-49
2023/03/28 05:45:36;;;;;;;12.43;9.75;;;;;;;;;;4990481;28;20025;-52
2023/03/28 05:48:02;;;;;;;8.73;8.13;;;;;;;;;;4990744;28;20025;-52
2023/03/28 05:50:27;;;;;;;9.85;9.25;;;;;;;;;;4993050;28;20053;-50
2023/03/28 05:52:53;;;;;;;8.90;8.30;;;;;;;;;;4992140;28;20042;-48
2023/03/28 05:55:18;;;;;;;9.05;8.45;;;;;;;;;;4991822;28;20413;-50
2023/03/28 05:57:45;;;;;;;9.40;8.70;;;;;;;;;;4990608;28;20042;-49
2023/03/28 06:00:11;;;;;;;9.75;8.85;;;;;;;;;;4994900;28;20039;-51
2023/03/28 06:02:37;;;;;;;7.97;7.47;;;;;;;;;;4993479;28;20037;-48
2023/03/28 06:05:02;;;;;;;9.18;8.57;;;;;;;;;;4992524;28;20111;-50
2023/03/28 06:07:28;;;;;;;9.10;8.40;;;;;;;;;;4992109;28;20118;-50
2023/03/28 06:09:53;;;;;;;8.60;8.00;;;;;;;;;;4991641;28;20084;-48
2023/03/28 06:12:18;;;;;;;8.10;7.60;;;;;;;;;;4991213;28;20038;-48
2023/03/28 06:14:44;;;;;;;9.02;8.43;;;;;;;;;;4991961;28;20044;-49
2023/03/28 06:17:09;;;;;;;11.20;10.20;;;;;;;;;;4990674;28;20072;-49
2023/03/28 06:19:35;;;;;;;8.48;7.90;;;;;;;;;;4990567;28;20123;-49
2023/03/28 06:22:01;;;;;;;9.13;8.52;;;;;;;;;;4994676;28;20068;-49
2023/03/28 06:24:26;;;;;;;9.38;8.77;;;;;;;;;;4992865;28;20053;-49
2023/03/28 06:26:52;;;;;;;8.50;8.00;;;;;;;;;;4993678;28;20038;-50
2023/03/28 06:29:18;;;;;;;9.07;8.48;;;;;;;;;;4990427;28;20041;-49
2023/03/28 06:31:44;;;;;;;9.32;8.63;;;;;;;;;;4993218;28;20034;-49
2023/03/28 06:34:09;;;;;;;9.60;8.90;;;;;;;;;;4992216;28;20030;-51
2023/03/28 06:36:35;;;;;;;10.15;9.43;;;;;;;;;;4996037;28;20065;-50
2023/03/28 06:39:00;;;;;;;8.95;8.35;;;;;;;;;;4993977;28;20041;-50
2023/03/28 06:41:26;;;;;;;9.38;8.75;;;;;;;;;;4993576;28;20038;-48
2023/03/28 06:43:51;;;;;;;8.88;8.32;;;;;;;;;;4990193;28;20100;-50
2023/03/28 06:46:17;;;;;;;9.27;8.68;;;;;;;;;;4992503;28;20030;-49
2023/03/28 06:48:43;;;;;;;9.60;9.00;;;;;;;;;;4991025;28;20038;-48
2023/03/28 06:51:08;;;;;;;8.82;8.23;;;;;;;;;;4989148;28;20613;-52
2023/03/28 06:53:34;;;;;;;9.00;8.40;;;;;;;;;;4993245;28;20119;-52
2023/03/28 06:56:01;;;;;;;10.82;9.73;;;;;;;;;;4991667;28;20065;-48
2023/03/28 06:58:26;;;;;;;9.98;9.38;;;;;;;;;;4991126;28;20041;-48
2023/03/28 07:00:52;;;;;;;10.55;9.95;;;;;;;;;;4991307;28;20042;-52
2023/03/28 07:03:18;;;;;;;12.20;11.30;;;;;;;;;;4991898;28;20038;-53
2023/03/28 07:05:44;;;;;;;10.98;10.27;;;;;;;;;;5000473;28;20779;-49
2023/03/28 07:08:11;;;;;;;10.98;10.27;;;;;;;;;;4995886;28;20044;-51
2023/03/28 07:10:38;;;;;;;9.88;9.27;;;;;;;;;;4991321;28;20036;-52
2023/03/28 07:13:04;;;;;;;9.55;8.95;;;;;;;;;;4992445;28;20073;-50
2023/03/28 07:15:30;;;;;;;9.13;8.55;;;;;;;;;;4990211;28;20038;-53
2023/03/28 07:17:55;;;;;;;9.90;9.30;;;;;;;;;;4994464;28;20042;-52
2023/03/28 07:20:21;;;;;;;11.13;10.43;;;;;;;;;;4993009;28;20033;-53
2023/03/28 07:22:46;;;;;;;11.98;11.27;;;;;;;;;;5007851;28;20465;-50
2023/03/28 07:25:12;;;;;;;12.07;11.32;;;;;;;;;;4996671;28;20038;-52
2023/03/28 07:27:37;;;;;;;11.05;10.35;;;;;;;;;;4994179;28;20041;-54
2023/03/28 07:30:05;;;;;;;10.90;10.20;;;;;;;;;;4995806;28;20041;-53
2023/03/28 07:32:30;;;;;;;11.43;10.63;;;;;;;;;;4994776;28;20029;-53
2023/03/28 07:34:56;;;;;;;11.50;10.80;;;;;;;;;;4993361;28;20037;-50
2023/03/28 07:37:21;;;;;;;10.65;9.93;;;;;;;;;;4992280;28;20038;-52
2023/03/28 07:39:47;;;;;;;10.13;9.52;;;;;;;;;;4992690;28;20035;-52
2023/03/28 07:42:13;;;;;;;10.20;9.60;;;;;;;;;;4993054;28;20401;-53
2023/03/28 07:44:39;;;;;;;9.77;9.18;;;;;;;;;;4999686;28;20115;-49
2023/03/28 07:47:05;;;;;;;9.75;9.05;;;;;;;;;;4997010;28;20137;-49
2023/03/28 07:49:31;;;;;;;10.50;9.80;;;;;;;;;;4998669;28;20100;-48
2023/03/28 07:51:56;;;;;;;9.45;8.85;;;;;;;;;;4999299;28;20034;-49
2023/03/28 07:54:23;;;;;;;10.57;9.90;;;;;;;;;;5000031;28;20430;-51
2023/03/28 07:56:49;;;;;;;11.57;10.68;;;;;;;;;;4995969;28;20121;-50
2023/03/28 07:59:14;;;;;;;9.68;9.07;;;;;;;;;;4998056;28;20125;-50
2023/03/28 08:01:40;;;;;;;9.98;9.27;;;;;;;;;;4997980;28;20037;-50
2023/03/28 08:04:06;;;;;;;10.05;9.45;;;;;;;;;;4994384;28;20104;-49
2023/03/28 08:06:33;;;;;;;9.52;8.93;;;;;;;;;;4995959;28;20044;-51
2023/03/28 08:08:59;;;;;;;9.30;8.70;;;;;;;;;;4993307;28;20042;-50
2023/03/28 08:11:26;;;;;;;10.95;10.25;;;;;;;;;;4994628;28;20479;-51
2023/03/28 08:13:51;;;;;;;9.73;9.13;;;;;;;;;;4995700;28;20051;-48
2023/03/28 08:16:16;;;;;;;10.88;10.20;;;;;;;;;;5000751;28;20073;-49
2023/03/28 08:18:42;;;;;;;10.57;9.88;;;;;;;;;;4992438;28;20032;-52
2023/03/28 08:21:07;;;;;;;10.48;9.88;;;;;;;;;;4993894;28;20148;-49
2023/03/28 08:23:32;;;;;;;10.40;9.75;;;;;;;;;;4995026;28;20065;-48
2023/03/28 08:26:03;;;;;;;11.07;10.38;;;;;;;;;;4994459;28;20052;-48
2023/03/28 08:28:30;;;;;;;10.55;9.95;;;;;;;;;;4993938;28;20049;-49
2023/03/28 08:30:56;;;;;;;10.57;9.88;;;;;;;;;;4993330;28;20038;-50
2023/03/28 08:33:21;;;;;;;11.45;10.75;;;;;;;;;;4995342;28;20362;-50
2023/03/28 08:35:50;;;;;;;10.90;10.20;;;;;;;;;;5003368;28;20042;-50
2023/03/28 08:38:17;;;;;;;11.13;10.43;;;;;;;;;;4993859;28;20487;-50
2023/03/28 08:40:52;;;;;;;11.10;10.40;;;;;;;;;;4996082;28;20036;-51
2023/03/28 08:43:36;;;;;;;11.35;10.65;;;;;;;;;;4994282;28;20026;-48
2023/03/28 08:46:02;;;;;;;13.32;12.38;;;;;;;;;;4991532;28;20042;-51
2023/03/28 08:48:39;;;;;;;11.30;10.55;;;;;;;;;;4995013;28;20033;-51
2023/03/28 08:51:26;;;;;;;11.52;10.82;;;;;;;;;;4990997;28;20454;-48
2023/03/28 08:53:59;;;;;;;12.27;11.57;;;;;;;;;;4993817;28;20041;-51
2023/03/28 08:56:26;;;;;;;10.52;9.93;;;;;;;;;;4992757;28;20088;-52
2023/03/28 08:59:15;;;;;;;11.43;10.73;;;;;;;;;;4993214;28;20038;-49
2023/03/28 09:01:42;;;;;;;11.75;11.05;;;;;;;;;;4995831;28;20137;-52
2023/03/28 09:04:21;;;;;;;10.50;9.80;;;;;;;;;;4994123;28;20356;-51
2023/03/28 09:06:49;;;;;;;12.02;11.32;;;;;;;;;;4996195;28;20121;-52
2023/03/28 09:09:31;;;;;;;11.90;11.20;;;;;;;;;;4997579;28;20783;-52
2023/03/28 09:11:56;;;;;;;12.85;12.07;;;;;;;;;;4991427;28;20399;-49
2023/03/28 09:14:40;;;;;;;12.75;11.95;;;;;;;;;;4992238;28;20041;-50
2023/03/28 09:17:34;;;;;;;12.85;11.93;;;;;;;;;;4994195;28;20046;-52
2023/03/28 09:20:12;;;;;;;12.50;11.80;;;;;;;;;;4991998;28;20042;-52
2023/03/28 09:23:17;;;;;;;12.05;11.35;;;;;;;;;;4993896;28;20487;-50
2023/03/28 09:25:47;;;;;;;11.30;10.60;;;;;;;;;;4990406;28;20117;-50
2023/03/28 09:28:21;;;;;;;11.87;11.17;;;;;;;;;;4996053;28;20096;-51
2023/03/28 09:30:50;;;;;;;12.75;11.95;;;;;;;;;;4993498;28;20038;-51
2023/03/28 09:33:22;;;;;;;11.65;10.95;;;;;;;;;;4993948;28;20125;-51
2023/03/28 09:35:49;;;;;;;13.75;12.95;;;;;;;;;;4993257;28;20022;-49
2023/03/28 09:38:24;;;;;;;14.75;13.88;;;;;;;;;;4992230;28;20033;-52
2023/03/28 09:40:53;;;;;;;17.27;16.27;;;;;;;;;;4993430;28;20038;-50
2023/03/28 09:43:46;;;;;;;16.08;15.18;;;;;;;;;;5009159;28;20034;-51
2023/03/28 09:46:29;;;;;;;15.65;14.75;;;;;;;;;;4995586;28;20124;-53
2023/03/28 09:48:54;;;;;;;16.30;15.40;;;;;;;;;;4993965;28;20042;-54
2023/03/28 09:51:20;;;;;;;15.95;14.85;;;;;;;;;;4993376;28;20039;-51
2023/03/28 09:53:45;;;;;;;16.92;16.00;;;;;;;;;;4995652;28;20740;-51
2023/03/28 09:56:27;;;;;;;14.73;13.93;;;;;;;;;;4994474;28;20037;-51
2023/03/28 09:58:55;;;;;;;14.52;13.68;;;;;;;;;;4995376;28;20100;-49
2023/03/28 10:01:33;;;;;;;16.45;15.55;;;;;;;;;;4993461;28;20065;-50
2023/03/28 10:03:59;;;;;;;17.05;16.05;;;;;;;;;;4993914;28;20395;-49
2023/03/28 10:06:30;;;;;;;13.85;13.05;;;;;;;;;;4990073;28;20053;-51
2023/03/28 10:09:14;;;;;;;15.52;14.63;;;;;;;;;;4991776;28;20661;-53
2023/03/28 10:11:47;;;;;;;14.40;13.60;;;;;;;;;;4991657;28;20536;-50
2023/03/28 10:14:36;;;;;;;19.50;14.68;;;;;;;;;;4992663;28;20095;-49
2023/03/28 10:17:11;;;;;;;13.57;12.77;;;;;;;;;;4992772;28;20045;-53
2023/03/28 10:19:41;;;;;;;14.05;13.25;;;;;;;;;;4993750;28;20034;-52
2023/03/28 10:22:22;;;;;;;15.38;14.48;;;;;;;;;;4991177;28;20034;-50
2023/03/28 10:24:48;;;;;;;17.33;16.38;;;;;;;;;;4991088;28;20464;-50
2023/03/28 10:27:26;;;;;;;16.83;15.88;;;;;;;;;;4990133;28;20041;-52
2023/03/28 10:29:54;;;;;;;16.75;15.85;;;;;;;;;;4990056;28;20510;-51
2023/03/28 10:32:26;;;;;;;16.88;15.98;;;;;;;;;;4993783;28;20504;-49
2023/03/28 10:35:10;;;;;;;;;;;;;;;;;;4995746;28;20073;-50
2023/03/28 10:37:35;;;;;;;16.85;15.80;;;;;;;;;;4992162;28;19992;-50
2023/03/28 10:40:28;;;;;;;15.98;15.07;;;;;;;;;;4994329;28;20093;-49
2023/03/28 10:42:55;;;;;;;15.80;14.90;;;;;;;;;;4987685;28;20053;-53
2023/03/28 10:45:45;;;;;;;17.42;16.42;;;;;;;;;;4991226;28;20080;-54
2023/03/28 10:48:18;;;;;;;17.35;16.35;;;;;;;;;;4993579;28;20076;-50
2023/03/28 10:50:47;;;;;;;16.55;15.60;;;;;;;;;;4993950;28;20093;-51
2023/03/28 10:53:36;;;;;;;16.00;15.10;;;;;;;;;;4996077;28;20042;-53
2023/03/28 10:56:14;;;;;;;14.98;14.13;;;;;;;;;;4993991;28;20045;-48
2023/03/28 10:58:54;;;;;;;16.38;15.48;;;;;;;;;;4997264;28;20111;-52
2023/03/28 11:01:24;;;;;;;14.98;14.10;;;;;;;;;;4996638;28;20037;-51
2023/03/28 11:04:11;;;;;;;16.13;15.23;;;;;;;;;;4994635;28;20061;-51
2023/03/28 11:06:55;;;;;;;16.63;15.73;;;;;;;;;;5009360;28;20396;-52
2023/03/28 11:09:37;;;;;;;17.08;15.90;;;;;;;;;;4997047;28;20046;-50
2023/03/28 11:13:01;;;;;;;17.88;16.52;;;;;;;;;;4994086;28;20041;-51
2023/03/28 11:15:33;;;;;;;16.23;15.32;;;;;;;;;;4962771;28;20057;-50
2023/03/28 11:18:15;;;;;;;16.23;15.32;;;;;;;;;;4993557;28;20042;-48
2023/03/28 11:20:41;;;;;;;16.10;15.20;;;;;;;;;;5002282;28;20026;-51
2023/03/28 11:23:18;;;;;;;14.98;14.15;;;;;;;;;;4998268;28;20041;-49
2023/03/28 11:25:54;;;;;;;15.80;14.90;;;;;;;;;;4992742;28;20034;-50
2023/03/28 11:28:37;;;;;;;17.05;16.05;;;;;;;;;;4995482;28;20359;-50
2023/03/28 11:31:03;;;;;;;14.35;13.55;;;;;;;;;;4996197;28;20423;-50
2023/03/28 11:33:53;;;;;;;15.48;14.57;;;;;;;;;;4998956;28;20113;-53
2023/03/28 11:36:28;;;;;;;14.47;13.67;;;;;;;;;;4996099;28;20042;-51
2023/03/28 11:39:02;;;;;;;15.63;14.73;;;;;;;;;;4994288;28;20046;-52
2023/03/28 11:41:35;;;;;;;16.27;15.38;;;;;;;;;;4997446;28;20590;-53
2023/03/28 11:44:18;;;;;;;14.75;13.95;;;;;;;;;;4997196;28;20060;-53
2023/03/28 11:47:01;;;;;;;14.27;13.48;;;;;;;;;;4996291;28;20368;-54
2023/03/28 11:49:34;;;;;;;14.73;13.88;;;;;;;;;;4996110;28;20042;-50
2023/03/28 11:52:16;;;;;;;15.02;14.13;;;;;;;;;;5010756;28;20034;-52
2023/03/28 11:54:47;;;;;;;15.85;14.85;;;;;;;;;;4995512;28;20084;-52
2023/03/28 11:57:45;;;;;;;13.63;12.82;;;;;;;;;;4995915;28;20038;-50
2023/03/28 12:00:19;;;;;;;14.43;13.63;;;;;;;;;;4986227;28;20038;-51
2023/03/28 12:03:05;;;;;;;13.48;12.68;;;;;;;;;;4997218;28;20030;-49
2023/03/28 12:05:33;;;;;;;14.57;13.68;;;;;;;;;;4998911;28;20463;-49
2023/03/28 12:08:20;;;;;;;14.23;13.43;;;;;;;;;;4996571;28;20046;-50
2023/03/28 12:10:51;;;;;;;14.50;13.70;;;;;;;;;;4994713;28;20539;-52
2023/03/28 12:13:31;;;;;;;15.05;14.10;;;;;;;;;;4994769;28;20042;-52
2023/03/28 12:16:07;;;;;;;15.40;14.50;;;;;;;;;;4997925;28;20165;-49
2023/03/28 12:18:49;;;;;;;15.40;14.50;;;;;;;;;;4991556;28;20046;-50
2023/03/28 12:21:20;;;;;;;16.75;15.75;;;;;;;;;;4991414;28;20046;-50
2023/03/28 12:24:10;;;;;;;14.40;13.60;;;;;;;;;;4993663;28;20060;-51
2023/03/28 12:26:42;;;;;;;15.88;14.88;;;;;;;;;;5007246;28;20034;-53
2023/03/28 12:29:26;;;;;;;17.00;15.80;;;;;;;;;;5009668;28;20464;-51
2023/03/28 12:32:13;;;;;;;15.82;14.93;;;;;;;;;;4994696;28;20507;-51
2023/03/28 12:34:47;;;;;;;16.05;15.15;;;;;;;;;;4994156;28;20048;-51
2023/03/28 12:37:32;;;;;;;14.93;14.05;;;;;;;;;;4993785;28;20408;-52
2023/03/28 12:40:24;;;;;;;16.15;15.05;;;;;;;;;;4996919;28;20061;-53
2023/03/28 12:42:53;;;;;;;17.20;16.20;;;;;;;;;;4994408;28;20088;-51
2023/03/28 12:45:31;;;;;;;15.40;14.50;;;;;;;;;;4996765;28;20549;-51
2023/03/28 12:48:05;;;;;;;15.38;14.48;;;;;;;;;;4996303;28;20125;-50
2023/03/28 12:50:32;;;;;;;16.60;15.60;;;;;;;;;;4995941;28;20481;-52
2023/03/28 12:52:59;;;;;;;16.25;15.32;;;;;;;;;;5000511;28;20485;-50
2023/03/28 12:55:24;;;;;;;16.38;15.48;;;;;;;;;;4995392;28;20081;-51
2023/03/28 12:57:51;;;;;;;16.73;15.52;;;;;;;;;;4997392;28;20041;-49
2023/03/28 13:00:26;;;;;;;16.20;15.30;;;;;;;;;;4994464;28;20042;-49
2023/03/28 13:02:57;;;;;;;16.00;15.10;;;;;;;;;;4995657;28;20042;-50
2023/03/28 13:05:31;;;;;;;16.35;15.45;;;;;;;;;;4993534;28;20043;-51
2023/03/28 13:08:12;;;;;;;16.10;15.20;;;;;;;;;;4996265;28;20399;-52
2023/03/28 13:10:53;;;;;;;15.60;14.70;;;;;;;;;;4993295;28;20133;-52
2023/03/28 13:13:33;;;;;;;;;;;;;;;;;;4993282;28;20596;-50
2023/03/28 13:16:04;;;;;;;17.33;16.33;;;;;;;;;;4991816;28;20004;-52
2023/03/28 13:18:32;;;;;;;16.98;16.05;;;;;;;;;;4993746;28;20419;-51
2023/03/28 13:21:02;;;;;;;16.13;15.23;;;;;;;;;;4992710;28;20036;-49
2023/03/28 13:23:35;;;;;;;15.80;14.90;;;;;;;;;;4994595;28;20041;-51
2023/03/28 13:26:06;;;;;;;15.20;14.30;;;;;;;;;;4995107;28;20042;-51
2023/03/28 13:28:38;;;;;;;16.55;15.55;;;;;;;;;;4990462;28;20038;-51
2023/03/28 13:31:11;;;;;;;16.38;15.48;;;;;;;;;;4994727;28;20042;-49
2023/03/28 13:33:45;;;;;;;17.42;16.42;;;;;;;;;;4992815;28;20033;-52
2023/03/28 13:36:16;;;;;;;15.93;15.02;;;;;;;;;;4994503;28;20096;-51
2023/03/28 13:38:47;;;;;;;15.18;14.27;;;;;;;;;;4997073;28;20036;-53
2023/03/28 13:41:40;;;;;;;16.58;15.68;;;;;;;;;;4997718;28;20379;-53
2023/03/28 13:44:11;;;;;;;16.90;15.90;;;;;;;;;;4992813;28;20037;-53
2023/03/28 13:46:41;;;;;;;16.67;15.68;;;;;;;;;;4990588;28;20039;-51
2023/03/28 13:49:09;;;;;;;15.25;14.35;;;;;;;;;;4994253;28;20030;-53
2023/03/28 13:51:46;;;;;;;17.15;16.15;;;;;;;;;;4994298;28;20034;-50
2023/03/28 13:54:12;;;;;;;15.57;14.68;;;;;;;;;;4991687;28;20030;-52
2023/03/28 13:56:43;;;;;;;19.15;17.50;;;;;;;;;;4993494;28;20064;-51
2023/03/28 13:59:23;;;;;;;15.65;14.75;;;;;;;;;;4993743;28;20044;-53
2023/03/28 14:01:56;;;;;;;15.95;15.05;;;;;;;;;;4990089;28;20053;-52
2023/03/28 14:04:27;;;;;;;16.10;14.75;;;;;;;;;;4988634;28;20089;-50
2023/03/28 14:06:53;;;;;;;;;;;;;;;;;;4991580;28;20117;-49
2023/03/28 14:09:27;;;;;;;16.73;14.80;;;;;;;;;;4992869;28;20283;-50
2023/03/28 14:11:55;;;;;;;16.40;15.50;;;;;;;;;;4993815;28;20034;-52
2023/03/28 14:14:48;;;;;;;15.95;15.05;;;;;;;;;;4994792;28;20041;-52
2023/03/28 14:17:22;;;;;;;15.68;14.77;;;;;;;;;;4990232;28;20053;-51
2023/03/28 14:19:55;;;;;;;16.35;15.45;;;;;;;;;;5009346;28;20045;-50
2023/03/28 14:22:24;;;;;;;15.23;14.38;;;;;;;;;;4994503;28;20045;-53
2023/03/28 14:24:54;;;;;;;15.48;14.57;;;;;;;;;;4991001;28;20879;-51
2023/03/28 14:27:47;;;;;;;15.38;14.48;;;;;;;;;;4992521;28;20034;-53
2023/03/28 14:30:27;;;;;;;15.05;14.18;;;;;;;;;;4992614;28;20049;-52
2023/03/28 14:33:06;;;;;;;15.32;14.43;;;;;;;;;;4999353;28;20065;-52
2023/03/28 14:35:33;;;;;;;14.98;14.13;;;;;;;;;;4998862;28;20038;-50
2023/03/28 14:38:01;;;;;;;14.75;13.85;;;;;;;;;;4999750;28;20026;-51
2023/03/28 14:40:28;;;;;;;15.15;14.05;;;;;;;;;;5000350;28;20025;-54
2023/03/28 14:42:58;;;;;;;16.00;14.90;;;;;;;;;;5000769;28;20099;-52
2023/03/28 14:45:25;;;;;;;16.02;15.13;;;;;;;;;;5000806;28;20042;-51
2023/03/28 14:47:50;;;;;;;14.43;13.55;;;;;;;;;;4998947;28;20030;-53
2023/03/28 14:50:19;;;;;;;15.27;14.38;;;;;;;;;;5000049;28;20073;-50
2023/03/28 14:52:45;;;;;;;16.70;15.68;;;;;;;;;;5000248;28;20045;-51
2023/03/28 14:55:20;;;;;;;14.65;13.80;;;;;;;;;;5000572;28;20033;-53
2023/03/28 14:57:47;;;;;;;16.40;15.40;;;;;;;;;;5000333;28;20380;-53